sensor_id;sensor_type;location;lat;lon;timestamp;pressure;altitude;pressure_sealevel;temperature;humidity
75536;BME280;64119;52.070;20.804;2023-02-15T00:00:11;102221.70;;;3.96;88.86
75536;BME280;64119;52.070;20.804;2023-02-15T00:02:59;102224.16;;;3.99;89.02
75536;BME280;64119;52.070;20.804;2023-02-15T00:05:27;102219.74;;;3.99;89.03
75536;BME280;64119;52.070;20.804;2023-02-15T00:07:57;102215.77;;;4.01;89.03
75536;BME280;64119;52.070;20.804;2023-02-15T00:10:25;102218.26;;;4.03;88.92
75536;BME280;64119;52.070;20.804;2023-02-15T00:12:53;102219.48;;;4.03;88.72
75536;BME280;64119;52.070;20.804;2023-02-15T00:15:20;102216.79;;;4.04;88.76
75536;BME280;64119;52.070;20.804;2023-02-15T00:17:48;102218.16;;;4.05;88.50
75536;BME280;64119;52.070;20.804;2023-02-15T00:20:16;102220.34;;;4.04;88.53
75536;BME280;64119;52.070;20.804;2023-02-15T00:22:44;102220.70;;;4.03;88.45
75536;BME280;64119;52.070;20.804;2023-02-15T00:25:12;102216.84;;;3.98;88.39
75536;BME280;64119;52.070;20.804;2023-02-15T00:27:40;102214.64;;;3.92;88.51
75536;BME280;64119;52.070;20.804;2023-02-15T00:30:08;102209.02;;;3.90;88.64
75536;BME280;64119;52.070;20.804;2023-02-15T00:32:36;102207.64;;;3.92;88.62
75536;BME280;64119;52.070;20.804;2023-02-15T00:35:04;102201.68;;;3.89;88.56
75536;BME280;64119;52.070;20.804;2023-02-15T00:37:33;102204.06;;;3.88;88.62
75536;BME280;64119;52.070;20.804;2023-02-15T00:40:03;102199.92;;;3.84;88.72
75536;BME280;64119;52.070;20.804;2023-02-15T00:42:32;102191.71;;;3.81;88.66
75536;BME280;64119;52.070;20.804;2023-02-15T00:45:00;102191.79;;;3.83;88.62
75536;BME280;64119;52.070;20.804;2023-02-15T00:47:28;102192.05;;;3.84;88.64
75536;BME280;64119;52.070;20.804;2023-02-15T00:49:56;102189.32;;;3.83;88.32
75536;BME280;64119;52.070;20.804;2023-02-15T00:52:24;102191.09;;;3.83;88.49
75536;BME280;64119;52.070;20.804;2023-02-15T00:54:51;102192.27;;;3.83;88.66
75536;BME280;64119;52.070;20.804;2023-02-15T00:57:19;102186.02;;;3.83;88.45
75536;BME280;64119;52.070;20.804;2023-02-15T00:59:47;102187.35;;;3.81;88.43
75536;BME280;64119;52.070;20.804;2023-02-15T01:02:15;102185.30;;;3.80;88.61
75536;BME280;64119;52.070;20.804;2023-02-15T01:04:43;102182.45;;;3.79;88.35
75536;BME280;64119;52.070;20.804;2023-02-15T01:07:11;102179.05;;;3.77;88.43
75536;BME280;64119;52.070;20.804;2023-02-15T01:09:38;102177.23;;;3.75;88.50
75536;BME280;64119;52.070;20.804;2023-02-15T01:12:06;102181.30;;;3.75;88.57
75536;BME280;64119;52.070;20.804;2023-02-15T01:14:34;102178.68;;;3.75;88.80
75536;BME280;64119;52.070;20.804;2023-02-15T01:17:02;102175.63;;;3.73;88.63
75536;BME280;64119;52.070;20.804;2023-02-15T01:19:33;102176.29;;;3.74;89.08
75536;BME280;64119;52.070;20.804;2023-02-15T01:22:01;102168.93;;;3.74;88.41
75536;BME280;64119;52.070;20.804;2023-02-15T01:24:29;102165.06;;;3.74;88.47
75536;BME280;64119;52.070;20.804;2023-02-15T01:26:57;102161.15;;;3.73;88.56
75536;BME280;64119;52.070;20.804;2023-02-15T01:29:26;102158.31;;;3.73;88.48
75536;BME280;64119;52.070;20.804;2023-02-15T01:31:54;102156.95;;;3.73;88.36
75536;BME280;64119;52.070;20.804;2023-02-15T01:34:22;102154.48;;;3.70;88.61
75536;BME280;64119;52.070;20.804;2023-02-15T01:36:50;102156.41;;;3.68;88.58
75536;BME280;64119;52.070;20.804;2023-02-15T01:39:18;102161.74;;;3.69;88.66
75536;BME280;64119;52.070;20.804;2023-02-15T01:41:45;102155.94;;;3.67;88.79
75536;BME280;64119;52.070;20.804;2023-02-15T01:47:26;102154.84;;;3.68;88.54
75536;BME280;64119;52.070;20.804;2023-02-15T01:50:02;102155.80;;;3.69;88.45
75536;BME280;64119;52.070;20.804;2023-02-15T01:52:31;102154.66;;;3.67;88.41
75536;BME280;64119;52.070;20.804;2023-02-15T01:55:01;102152.37;;;3.65;88.75
75536;BME280;64119;52.070;20.804;2023-02-15T01:57:30;102154.53;;;3.62;88.67
75536;BME280;64119;52.070;20.804;2023-02-15T02:00:00;102153.45;;;3.62;88.68
75536;BME280;64119;52.070;20.804;2023-02-15T02:02:41;102147.88;;;3.62;88.99
75536;BME280;64119;52.070;20.804;2023-02-15T02:05:11;102145.10;;;3.62;88.59
75536;BME280;64119;52.070;20.804;2023-02-15T02:07:41;102146.33;;;3.62;88.71
75536;BME280;64119;52.070;20.804;2023-02-15T02:10:13;102143.11;;;3.62;89.04
75536;BME280;64119;52.070;20.804;2023-02-15T02:12:43;102139.89;;;3.63;88.91
75536;BME280;64119;52.070;20.804;2023-02-15T02:15:13;102137.70;;;3.62;88.96
75536;BME280;64119;52.070;20.804;2023-02-15T02:20:34;102131.71;;;3.63;89.10
75536;BME280;64119;52.070;20.804;2023-02-15T02:23:13;102134.80;;;3.64;88.69
75536;BME280;64119;52.070;20.804;2023-02-15T02:34:36;102134.36;;;3.63;89.02
75536;BME280;64119;52.070;20.804;2023-02-15T02:42:41;102132.80;;;3.62;88.74
75536;BME280;64119;52.070;20.804;2023-02-15T02:45:15;102131.76;;;3.60;89.02
75536;BME280;64119;52.070;20.804;2023-02-15T02:47:54;102131.24;;;3.59;88.90
75536;BME280;64119;52.070;20.804;2023-02-15T02:50:26;102128.46;;;3.59;88.99
75536;BME280;64119;52.070;20.804;2023-02-15T02:52:57;102128.96;;;3.59;88.63
75536;BME280;64119;52.070;20.804;2023-02-15T02:55:37;102127.70;;;3.57;88.60
75536;BME280;64119;52.070;20.804;2023-02-15T02:58:11;102129.92;;;3.56;88.66
75536;BME280;64119;52.070;20.804;2023-02-15T03:00:51;102129.89;;;3.53;88.63
75536;BME280;64119;52.070;20.804;2023-02-15T03:03:26;102124.53;;;3.53;88.74
75536;BME280;64119;52.070;20.804;2023-02-15T03:06:02;102119.20;;;3.51;89.12
75536;BME280;64119;52.070;20.804;2023-02-15T03:08:38;102116.61;;;3.51;88.99
75536;BME280;64119;52.070;20.804;2023-02-15T03:11:09;102116.30;;;3.50;89.10
75536;BME280;64119;52.070;20.804;2023-02-15T03:13:39;102114.17;;;3.48;89.68
75536;BME280;64119;52.070;20.804;2023-02-15T03:16:09;102117.91;;;3.47;89.36
75536;BME280;64119;52.070;20.804;2023-02-15T03:19:05;102121.27;;;3.46;89.80
75536;BME280;64119;52.070;20.804;2023-02-15T03:21:38;102119.34;;;3.46;89.04
75536;BME280;64119;52.070;20.804;2023-02-15T03:24:13;102118.70;;;3.48;89.26
75536;BME280;64119;52.070;20.804;2023-02-15T03:26:45;102116.45;;;3.48;89.05
75536;BME280;64119;52.070;20.804;2023-02-15T03:29:16;102122.84;;;3.49;88.94
75536;BME280;64119;52.070;20.804;2023-02-15T03:31:47;102125.33;;;3.46;89.24
75536;BME280;64119;52.070;20.804;2023-02-15T03:34:17;102127.70;;;3.42;89.44
75536;BME280;64119;52.070;20.804;2023-02-15T03:36:47;102123.52;;;3.41;89.63
75536;BME280;64119;52.070;20.804;2023-02-15T03:41:58;102123.61;;;3.45;89.25
75536;BME280;64119;52.070;20.804;2023-02-15T03:44:31;102121.67;;;3.45;89.49
75536;BME280;64119;52.070;20.804;2023-02-15T03:47:06;102124.81;;;3.46;89.34
75536;BME280;64119;52.070;20.804;2023-02-15T03:52:25;102119.10;;;3.47;89.04
75536;BME280;64119;52.070;20.804;2023-02-15T03:54:54;102115.33;;;3.46;89.12
75536;BME280;64119;52.070;20.804;2023-02-15T03:57:27;102113.11;;;3.45;89.19
75536;BME280;64119;52.070;20.804;2023-02-15T04:00:21;102115.10;;;3.44;88.90
75536;BME280;64119;52.070;20.804;2023-02-15T04:07:52;102112.28;;;3.39;89.33
75536;BME280;64119;52.070;20.804;2023-02-15T04:10:20;102107.89;;;3.40;89.38
75536;BME280;64119;52.070;20.804;2023-02-15T04:13:07;102106.30;;;3.40;89.62
75536;BME280;64119;52.070;20.804;2023-02-15T04:15:34;102107.64;;;3.41;89.06
75536;BME280;64119;52.070;20.804;2023-02-15T04:18:21;102107.29;;;3.41;89.12
75536;BME280;64119;52.070;20.804;2023-02-15T04:20:49;102109.27;;;3.37;89.15
75536;BME280;64119;52.070;20.804;2023-02-15T04:23:35;102107.16;;;3.35;88.90
75536;BME280;64119;52.070;20.804;2023-02-15T04:26:22;102107.02;;;3.31;89.97
75536;BME280;64119;52.070;20.804;2023-02-15T04:28:50;102106.54;;;3.31;89.56
75536;BME280;64119;52.070;20.804;2023-02-15T04:31:17;102110.31;;;3.32;89.18
75536;BME280;64119;52.070;20.804;2023-02-15T04:33:45;102107.45;;;3.28;89.68
75536;BME280;64119;52.070;20.804;2023-02-15T04:36:13;102104.23;;;3.26;89.58
75536;BME280;64119;52.070;20.804;2023-02-15T04:38:41;102105.31;;;3.25;89.23
75536;BME280;64119;52.070;20.804;2023-02-15T04:41:09;102102.71;;;3.22;89.57
75536;BME280;64119;52.070;20.804;2023-02-15T04:43:38;102102.04;;;3.25;89.38
75536;BME280;64119;52.070;20.804;2023-02-15T04:46:06;102104.79;;;3.23;89.31
75536;BME280;64119;52.070;20.804;2023-02-15T04:48:34;102104.10;;;3.20;89.30
75536;BME280;64119;52.070;20.804;2023-02-15T04:51:05;102107.21;;;3.18;89.39
75536;BME280;64119;52.070;20.804;2023-02-15T04:53:34;102103.81;;;3.14;89.42
75536;BME280;64119;52.070;20.804;2023-02-15T04:56:02;102107.35;;;3.10;89.55
75536;BME280;64119;52.070;20.804;2023-02-15T04:58:30;102105.05;;;3.08;89.35
75536;BME280;64119;52.070;20.804;2023-02-15T05:00:58;102106.25;;;3.06;89.48
75536;BME280;64119;52.070;20.804;2023-02-15T05:03:26;102107.09;;;3.04;89.62
75536;BME280;64119;52.070;20.804;2023-02-15T05:05:54;102105.29;;;3.02;89.68
75536;BME280;64119;52.070;20.804;2023-02-15T05:08:22;102108.86;;;3.01;89.43
75536;BME280;64119;52.070;20.804;2023-02-15T05:10:50;102107.89;;;2.97;89.79
75536;BME280;64119;52.070;20.804;2023-02-15T05:13:18;102113.13;;;2.97;90.05
75536;BME280;64119;52.070;20.804;2023-02-15T05:15:48;102116.80;;;2.97;89.67
75536;BME280;64119;52.070;20.804;2023-02-15T05:18:17;102120.04;;;2.95;89.73
75536;BME280;64119;52.070;20.804;2023-02-15T05:20:46;102122.11;;;2.93;89.63
75536;BME280;64119;52.070;20.804;2023-02-15T05:23:14;102128.15;;;2.91;89.62
75536;BME280;64119;52.070;20.804;2023-02-15T05:25:49;102124.77;;;2.87;89.86
75536;BME280;64119;52.070;20.804;2023-02-15T05:28:37;102128.38;;;2.85;90.03
75536;BME280;64119;52.070;20.804;2023-02-15T05:33:36;102132.20;;;2.80;90.00
75536;BME280;64119;52.070;20.804;2023-02-15T05:36:04;102132.50;;;2.78;89.91
75536;BME280;64119;52.070;20.804;2023-02-15T05:38:33;102133.59;;;2.77;90.14
75536;BME280;64119;52.070;20.804;2023-02-15T05:41:01;102131.02;;;2.76;89.64
75536;BME280;64119;52.070;20.804;2023-02-15T05:43:30;102128.02;;;2.74;90.20
75536;BME280;64119;52.070;20.804;2023-02-15T05:45:58;102127.96;;;2.72;90.33
75536;BME280;64119;52.070;20.804;2023-02-15T05:48:27;102128.05;;;2.71;90.29
75536;BME280;64119;52.070;20.804;2023-02-15T05:51:00;102130.91;;;2.69;90.10
75536;BME280;64119;52.070;20.804;2023-02-15T05:53:30;102128.91;;;2.68;90.33
75536;BME280;64119;52.070;20.804;2023-02-15T05:55:59;102136.40;;;2.68;90.11
75536;BME280;64119;52.070;20.804;2023-02-15T05:58:29;102135.35;;;2.68;90.10
75536;BME280;64119;52.070;20.804;2023-02-15T06:00:57;102128.86;;;2.68;90.21
75536;BME280;64119;52.070;20.804;2023-02-15T06:03:25;102131.09;;;2.66;90.33
75536;BME280;64119;52.070;20.804;2023-02-15T06:05:55;102129.88;;;2.66;89.46
75536;BME280;64119;52.070;20.804;2023-02-15T06:08:23;102126.64;;;2.65;89.72
75536;BME280;64119;52.070;20.804;2023-02-15T06:10:51;102128.71;;;2.63;90.00
75536;BME280;64119;52.070;20.804;2023-02-15T06:13:19;102127.02;;;2.62;89.98
75536;BME280;64119;52.070;20.804;2023-02-15T06:15:47;102123.80;;;2.60;90.53
75536;BME280;64119;52.070;20.804;2023-02-15T06:18:15;102125.61;;;2.59;89.92
75536;BME280;64119;52.070;20.804;2023-02-15T06:20:45;102128.70;;;2.60;89.97
75536;BME280;64119;52.070;20.804;2023-02-15T06:23:13;102129.98;;;2.59;90.55
75536;BME280;64119;52.070;20.804;2023-02-15T06:25:41;102125.73;;;2.57;91.31
75536;BME280;64119;52.070;20.804;2023-02-15T06:28:09;102131.61;;;2.58;90.45
75536;BME280;64119;52.070;20.804;2023-02-15T06:30:36;102130.25;;;2.58;90.59
75536;BME280;64119;52.070;20.804;2023-02-15T06:33:04;102135.20;;;2.56;90.50
75536;BME280;64119;52.070;20.804;2023-02-15T06:35:32;102136.16;;;2.55;90.49
75536;BME280;64119;52.070;20.804;2023-02-15T06:38:00;102136.49;;;2.53;90.91
75536;BME280;64119;52.070;20.804;2023-02-15T06:40:27;102137.49;;;2.51;90.95
75536;BME280;64119;52.070;20.804;2023-02-15T06:42:55;102136.29;;;2.50;90.66
75536;BME280;64119;52.070;20.804;2023-02-15T06:45:23;102135.30;;;2.49;90.77
75536;BME280;64119;52.070;20.804;2023-02-15T06:47:51;102137.73;;;2.52;90.95
75536;BME280;64119;52.070;20.804;2023-02-15T06:50:18;102140.79;;;2.54;90.99
75536;BME280;64119;52.070;20.804;2023-02-15T06:52:46;102142.58;;;2.56;91.04
75536;BME280;64119;52.070;20.804;2023-02-15T06:55:14;102139.92;;;2.56;91.33
75536;BME280;64119;52.070;20.804;2023-02-15T06:57:42;102140.23;;;2.57;91.31
75536;BME280;64119;52.070;20.804;2023-02-15T07:00:10;102138.17;;;2.56;91.34
75536;BME280;64119;52.070;20.804;2023-02-15T07:02:38;102138.25;;;2.58;91.77
75536;BME280;64119;52.070;20.804;2023-02-15T07:05:06;102137.10;;;2.59;91.86
75536;BME280;64119;52.070;20.804;2023-02-15T07:07:34;102138.46;;;2.60;92.06
75536;BME280;64119;52.070;20.804;2023-02-15T07:10:03;102135.14;;;2.63;91.54
75536;BME280;64119;52.070;20.804;2023-02-15T07:12:30;102135.35;;;2.68;91.47
75536;BME280;64119;52.070;20.804;2023-02-15T07:18:22;102135.20;;;2.74;91.29
75536;BME280;64119;52.070;20.804;2023-02-15T07:20:52;102128.91;;;2.71;91.24
75536;BME280;64119;52.070;20.804;2023-02-15T07:23:20;102131.42;;;2.73;91.60
75536;BME280;64119;52.070;20.804;2023-02-15T07:25:48;102130.20;;;2.76;91.19
75536;BME280;64119;52.070;20.804;2023-02-15T07:28:15;102130.35;;;2.76;91.27
75536;BME280;64119;52.070;20.804;2023-02-15T07:30:43;102132.23;;;2.77;91.63
75536;BME280;64119;52.070;20.804;2023-02-15T07:33:11;102134.42;;;2.80;91.07
75536;BME280;64119;52.070;20.804;2023-02-15T07:35:53;102129.04;;;2.83;91.49
75536;BME280;64119;52.070;20.804;2023-02-15T07:38:21;102127.13;;;2.85;91.06
75536;BME280;64119;52.070;20.804;2023-02-15T07:40:49;102126.77;;;2.86;91.19
75536;BME280;64119;52.070;20.804;2023-02-15T07:43:17;102127.56;;;2.84;91.01
75536;BME280;64119;52.070;20.804;2023-02-15T07:45:45;102125.17;;;2.83;90.99
75536;BME280;64119;52.070;20.804;2023-02-15T07:48:13;102124.83;;;2.86;91.16
75536;BME280;64119;52.070;20.804;2023-02-15T07:50:41;102120.86;;;2.88;90.99
75536;BME280;64119;52.070;20.804;2023-02-15T07:53:09;102120.44;;;2.86;91.06
75536;BME280;64119;52.070;20.804;2023-02-15T07:55:36;102116.13;;;2.85;91.25
75536;BME280;64119;52.070;20.804;2023-02-15T07:58:04;102116.34;;;2.85;90.31
75536;BME280;64119;52.070;20.804;2023-02-15T08:00:32;102114.17;;;2.83;90.40
75536;BME280;64119;52.070;20.804;2023-02-15T08:03:25;102111.99;;;2.79;90.46
75536;BME280;64119;52.070;20.804;2023-02-15T08:05:58;102110.27;;;2.73;90.87
75536;BME280;64119;52.070;20.804;2023-02-15T08:08:27;102109.84;;;2.68;90.59
75536;BME280;64119;52.070;20.804;2023-02-15T08:11:02;102108.89;;;2.67;90.24
75536;BME280;64119;52.070;20.804;2023-02-15T08:13:51;102104.35;;;2.64;90.34
75536;BME280;64119;52.070;20.804;2023-02-15T08:19:18;102102.13;;;2.61;90.59
75536;BME280;64119;52.070;20.804;2023-02-15T08:21:57;102101.69;;;2.59;90.07
75536;BME280;64119;52.070;20.804;2023-02-15T08:24:27;102097.67;;;2.56;90.00
75536;BME280;64119;52.070;20.804;2023-02-15T08:26:56;102096.72;;;2.52;90.19
75536;BME280;64119;52.070;20.804;2023-02-15T08:29:27;102095.39;;;2.51;90.08
75536;BME280;64119;52.070;20.804;2023-02-15T08:31:58;102098.14;;;2.49;89.96
75536;BME280;64119;52.070;20.804;2023-02-15T08:34:26;102096.23;;;2.46;90.50
75536;BME280;64119;52.070;20.804;2023-02-15T08:36:54;102095.15;;;2.46;90.53
75536;BME280;64119;52.070;20.804;2023-02-15T08:39:22;102097.04;;;2.47;90.38
75536;BME280;64119;52.070;20.804;2023-02-15T08:41:50;102097.27;;;2.46;90.15
75536;BME280;64119;52.070;20.804;2023-02-15T08:44:20;102096.75;;;2.46;89.91
75536;BME280;64119;52.070;20.804;2023-02-15T08:46:49;102092.70;;;2.46;89.68
75536;BME280;64119;52.070;20.804;2023-02-15T08:49:21;102090.91;;;2.47;90.54
75536;BME280;64119;52.070;20.804;2023-02-15T08:51:49;102087.84;;;2.49;90.24
75536;BME280;64119;52.070;20.804;2023-02-15T08:54:20;102086.04;;;2.50;90.51
75536;BME280;64119;52.070;20.804;2023-02-15T08:56:48;102084.11;;;2.53;90.67
75536;BME280;64119;52.070;20.804;2023-02-15T08:59:21;102084.88;;;2.57;90.48
75536;BME280;64119;52.070;20.804;2023-02-15T09:01:51;102080.70;;;2.60;90.46
75536;BME280;64119;52.070;20.804;2023-02-15T09:04:20;102076.46;;;2.66;90.59
75536;BME280;64119;52.070;20.804;2023-02-15T09:06:49;102074.58;;;2.71;90.32
75536;BME280;64119;52.070;20.804;2023-02-15T09:09:18;102070.83;;;2.72;90.34
75536;BME280;64119;52.070;20.804;2023-02-15T09:11:48;102068.14;;;2.74;90.46
75536;BME280;64119;52.070;20.804;2023-02-15T09:14:22;102063.73;;;2.74;90.20
75536;BME280;64119;52.070;20.804;2023-02-15T09:16:52;102066.41;;;2.76;90.35
75536;BME280;64119;52.070;20.804;2023-02-15T09:19:22;102069.33;;;2.77;90.67
75536;BME280;64119;52.070;20.804;2023-02-15T09:21:50;102062.81;;;2.75;90.34
75536;BME280;64119;52.070;20.804;2023-02-15T09:24:19;102061.73;;;2.78;90.98
75536;BME280;64119;52.070;20.804;2023-02-15T09:26:47;102054.30;;;2.77;90.63
75536;BME280;64119;52.070;20.804;2023-02-15T09:29:17;102058.86;;;2.77;90.74
75536;BME280;64119;52.070;20.804;2023-02-15T09:31:47;102056.59;;;2.79;90.91
75536;BME280;64119;52.070;20.804;2023-02-15T09:34:19;102055.95;;;2.78;90.64
75536;BME280;64119;52.070;20.804;2023-02-15T09:36:48;102049.66;;;2.76;90.82
75536;BME280;64119;52.070;20.804;2023-02-15T09:39:18;102051.13;;;2.77;90.52
75536;BME280;64119;52.070;20.804;2023-02-15T09:55:52;102046.38;;;2.89;90.58
75536;BME280;64119;52.070;20.804;2023-02-15T09:58:42;102045.85;;;2.91;90.40
75536;BME280;64119;52.070;20.804;2023-02-15T10:07:15;102032.16;;;2.92;90.20
75536;BME280;64119;52.070;20.804;2023-02-15T10:16:14;102027.20;;;3.01;90.37
75536;BME280;64119;52.070;20.804;2023-02-15T10:18:54;102022.97;;;3.05;90.41
75536;BME280;64119;52.070;20.804;2023-02-15T10:26:46;102018.71;;;3.16;90.34
75536;BME280;64119;52.070;20.804;2023-02-15T10:45:23;101999.60;;;3.12;90.58
75536;BME280;64119;52.070;20.804;2023-02-15T10:48:21;101998.27;;;3.13;90.43
75536;BME280;64119;52.070;20.804;2023-02-15T10:50:52;101997.60;;;3.18;90.47
75536;BME280;64119;52.070;20.804;2023-02-15T10:56:33;101990.45;;;3.23;90.56
75536;BME280;64119;52.070;20.804;2023-02-15T10:59:23;101986.92;;;3.23;89.99
75536;BME280;64119;52.070;20.804;2023-02-15T11:04:53;101979.71;;;3.16;90.45
75536;BME280;64119;52.070;20.804;2023-02-15T11:07:32;101981.87;;;3.13;90.35
75536;BME280;64119;52.070;20.804;2023-02-15T11:10:29;101980.42;;;3.11;90.39
75536;BME280;64119;52.070;20.804;2023-02-15T11:13:03;101979.66;;;3.12;90.35
75536;BME280;64119;52.070;20.804;2023-02-15T11:15:36;101980.08;;;3.13;90.65
75536;BME280;64119;52.070;20.804;2023-02-15T11:18:25;101976.38;;;3.11;90.44
75536;BME280;64119;52.070;20.804;2023-02-15T11:23:28;101976.77;;;3.18;90.78
75536;BME280;64119;52.070;20.804;2023-02-15T11:26:04;101971.95;;;3.22;90.76
75536;BME280;64119;52.070;20.804;2023-02-15T11:28:43;101975.81;;;3.27;90.65
75536;BME280;64119;52.070;20.804;2023-02-15T11:31:16;101973.40;;;3.29;90.49
75536;BME280;64119;52.070;20.804;2023-02-15T11:33:55;101972.27;;;3.28;90.60
75536;BME280;64119;52.070;20.804;2023-02-15T11:36:28;101973.20;;;3.32;90.48
75536;BME280;64119;52.070;20.804;2023-02-15T11:39:11;101970.21;;;3.32;90.61
75536;BME280;64119;52.070;20.804;2023-02-15T11:41:45;101969.14;;;3.36;90.52
75536;BME280;64119;52.070;20.804;2023-02-15T11:44:24;101961.70;;;3.34;90.47
75536;BME280;64119;52.070;20.804;2023-02-15T11:46:54;101960.99;;;3.34;90.48
75536;BME280;64119;52.070;20.804;2023-02-15T11:49:32;101960.05;;;3.35;90.52
75536;BME280;64119;52.070;20.804;2023-02-15T11:52:03;101959.94;;;3.34;90.19
75536;BME280;64119;52.070;20.804;2023-02-15T11:54:35;101960.84;;;3.37;90.49
75536;BME280;64119;52.070;20.804;2023-02-15T11:57:42;101956.70;;;3.39;90.38
75536;BME280;64119;52.070;20.804;2023-02-15T12:00:34;101954.58;;;3.39;90.55
75536;BME280;64119;52.070;20.804;2023-02-15T12:03:11;101946.45;;;3.43;90.21
75536;BME280;64119;52.070;20.804;2023-02-15T12:05:42;101943.53;;;3.44;90.12
75536;BME280;64119;52.070;20.804;2023-02-15T12:08:16;101939.20;;;3.44;90.10
75536;BME280;64119;52.070;20.804;2023-02-15T12:11:02;101936.08;;;3.44;90.26
75536;BME280;64119;52.070;20.804;2023-02-15T12:13:33;101931.81;;;3.42;89.90
75536;BME280;64119;52.070;20.804;2023-02-15T12:16:06;101930.80;;;3.41;90.24
75536;BME280;64119;52.070;20.804;2023-02-15T12:18:42;101924.26;;;3.40;90.04
75536;BME280;64119;52.070;20.804;2023-02-15T12:21:25;101923.30;;;3.42;90.26
75536;BME280;64119;52.070;20.804;2023-02-15T12:23:57;101926.92;;;3.39;90.38
75536;BME280;64119;52.070;20.804;2023-02-15T12:26:31;101925.03;;;3.36;90.23
75536;BME280;64119;52.070;20.804;2023-02-15T12:29:16;101921.16;;;3.39;90.29
75536;BME280;64119;52.070;20.804;2023-02-15T12:31:45;101921.26;;;3.43;90.02
75536;BME280;64119;52.070;20.804;2023-02-15T12:34:23;101917.02;;;3.43;90.20
75536;BME280;64119;52.070;20.804;2023-02-15T12:36:54;101919.33;;;3.48;90.03
75536;BME280;64119;52.070;20.804;2023-02-15T12:39:27;101915.34;;;3.50;90.09
75536;BME280;64119;52.070;20.804;2023-02-15T12:44:34;101915.05;;;3.52;89.68
75536;BME280;64119;52.070;20.804;2023-02-15T12:47:18;101913.48;;;3.54;89.86
75536;BME280;64119;52.070;20.804;2023-02-15T12:52:31;101903.66;;;3.49;89.95
75536;BME280;64119;52.070;20.804;2023-02-15T12:55:24;101897.38;;;3.44;90.01
75536;BME280;64119;52.070;20.804;2023-02-15T13:00:42;101887.87;;;3.43;89.96
75536;BME280;64119;52.070;20.804;2023-02-15T13:03:18;101886.64;;;3.45;90.16
75536;BME280;64119;52.070;20.804;2023-02-15T13:05:48;101880.17;;;3.40;90.46
75536;BME280;64119;52.070;20.804;2023-02-15T13:08:19;101877.55;;;3.40;90.40
75536;BME280;64119;52.070;20.804;2023-02-15T13:10:58;101877.02;;;3.43;90.46
75536;BME280;64119;52.070;20.804;2023-02-15T13:13:30;101873.16;;;3.41;90.21
75536;BME280;64119;52.070;20.804;2023-02-15T13:16:02;101869.58;;;3.34;90.22
75536;BME280;64119;52.070;20.804;2023-02-15T13:18:40;101871.84;;;3.29;90.02
75536;BME280;64119;52.070;20.804;2023-02-15T13:21:15;101870.10;;;3.29;90.26
75536;BME280;64119;52.070;20.804;2023-02-15T13:23:50;101866.02;;;3.32;90.32
75536;BME280;64119;52.070;20.804;2023-02-15T13:26:21;101862.20;;;3.32;90.05
75536;BME280;64119;52.070;20.804;2023-02-15T13:28:53;101860.16;;;3.31;90.14
75536;BME280;64119;52.070;20.804;2023-02-15T13:31:27;101856.58;;;3.30;89.89
75536;BME280;64119;52.070;20.804;2023-02-15T13:34:16;101856.14;;;3.28;90.07
75536;BME280;64119;52.070;20.804;2023-02-15T13:42:26;101848.67;;;3.23;90.20
75536;BME280;64119;52.070;20.804;2023-02-15T13:48:34;101844.77;;;3.19;90.25
75536;BME280;64119;52.070;20.804;2023-02-15T13:59:34;101846.15;;;3.14;90.45
75536;BME280;64119;52.070;20.804;2023-02-15T14:07:25;101846.66;;;3.07;90.36
75536;BME280;64119;52.070;20.804;2023-02-15T14:16:03;101840.86;;;3.02;90.51
75536;BME280;64119;52.070;20.804;2023-02-15T14:18:55;101840.61;;;3.00;90.64
75536;BME280;64119;52.070;20.804;2023-02-15T14:21:32;101835.94;;;3.00;90.87
75536;BME280;64119;52.070;20.804;2023-02-15T14:29:53;101835.01;;;2.93;90.85
75536;BME280;64119;52.070;20.804;2023-02-15T14:32:45;101831.94;;;2.92;90.71
75536;BME280;64119;52.070;20.804;2023-02-15T14:35:19;101832.91;;;2.88;90.97
75536;BME280;64119;52.070;20.804;2023-02-15T14:40:30;101832.76;;;2.85;90.62
75536;BME280;64119;52.070;20.804;2023-02-15T14:43:24;101832.20;;;2.80;90.61
75536;BME280;64119;52.070;20.804;2023-02-15T14:46:26;101829.17;;;2.79;90.67
75536;BME280;64119;52.070;20.804;2023-02-15T14:49:11;101822.51;;;2.74;90.41
75536;BME280;64119;52.070;20.804;2023-02-15T14:54:07;101828.24;;;2.77;90.29
75536;BME280;64119;52.070;20.804;2023-02-15T14:56:35;101827.58;;;2.77;90.37
75536;BME280;64119;52.070;20.804;2023-02-15T14:59:13;101826.83;;;2.77;90.19
75536;BME280;64119;52.070;20.804;2023-02-15T15:01:51;101824.30;;;2.81;90.47
75536;BME280;64119;52.070;20.804;2023-02-15T15:04:27;101817.27;;;2.84;90.45
75536;BME280;64119;52.070;20.804;2023-02-15T15:09:46;101816.98;;;2.86;90.44
75536;BME280;64119;52.070;20.804;2023-02-15T15:14:50;101815.25;;;2.83;90.51
75536;BME280;64119;52.070;20.804;2023-02-15T15:20:03;101810.30;;;2.79;89.99
75536;BME280;64119;52.070;20.804;2023-02-15T15:22:33;101804.14;;;2.74;89.88
75536;BME280;64119;52.070;20.804;2023-02-15T15:27:50;101795.50;;;2.67;90.24
75536;BME280;64119;52.070;20.804;2023-02-15T15:35:43;101787.67;;;2.67;90.44
75536;BME280;64119;52.070;20.804;2023-02-15T15:49:33;101780.08;;;2.58;90.08
75536;BME280;64119;52.070;20.804;2023-02-15T15:52:08;101777.58;;;2.56;90.54
75536;BME280;64119;52.070;20.804;2023-02-15T15:54:41;101780.59;;;2.58;90.60
75536;BME280;64119;52.070;20.804;2023-02-15T15:57:19;101779.91;;;2.58;90.53
75536;BME280;64119;52.070;20.804;2023-02-15T15:59:48;101778.98;;;2.56;90.55
75536;BME280;64119;52.070;20.804;2023-02-15T16:02:17;101779.98;;;2.57;90.42
75536;BME280;64119;52.070;20.804;2023-02-15T16:04:45;101778.05;;;2.54;90.27
75536;BME280;64119;52.070;20.804;2023-02-15T16:10:20;101772.48;;;2.54;90.57